sensor_id;sensor_type;location;lat;lon;timestamp;P1;durP1;ratioP1;P2;durP2;ratioP2
17524;SDS011;40431;52.198;9.902;2023-10-19T00:01:47;27.73;;;25.13;;
17524;SDS011;40431;52.198;9.902;2023-10-19T00:04:13;26.63;;;24.40;;
17524;SDS011;40431;52.198;9.902;2023-10-19T00:06:39;27.33;;;24.73;;
17524;SDS011;40431;52.198;9.902;2023-10-19T00:09:06;27.73;;;25.33;;
17524;SDS011;40431;52.198;9.902;2023-10-19T00:11:36;28.40;;;26.10;;
17524;SDS011;40431;52.198;9.902;2023-10-19T00:14:05;27.60;;;25.60;;
17524;SDS011;40431;52.198;9.902;2023-10-19T00:16:42;29.20;;;26.83;;
17524;SDS011;40431;52.198;9.902;2023-10-19T00:19:10;30.77;;;27.83;;
17524;SDS011;40431;52.198;9.902;2023-10-19T00:21:37;27.50;;;25.07;;
17524;SDS011;40431;52.198;9.902;2023-10-19T00:24:15;29.80;;;27.10;;
17524;SDS011;40431;52.198;9.902;2023-10-19T00:26:44;28.30;;;26.00;;
17524;SDS011;40431;52.198;9.902;2023-10-19T00:29:10;28.70;;;26.27;;
17524;SDS011;40431;52.198;9.902;2023-10-19T00:31:56;28.17;;;25.93;;
17524;SDS011;40431;52.198;9.902;2023-10-19T00:34:24;30.83;;;27.97;;
17524;SDS011;40431;52.198;9.902;2023-10-19T00:36:51;30.30;;;27.70;;
17524;SDS011;40431;52.198;9.902;2023-10-19T00:39:18;30.00;;;27.50;;
17524;SDS011;40431;52.198;9.902;2023-10-19T00:41:47;31.77;;;28.83;;
17524;SDS011;40431;52.198;9.902;2023-10-19T00:44:15;31.63;;;28.57;;
17524;SDS011;40431;52.198;9.902;2023-10-19T00:46:47;32.03;;;29.00;;
17524;SDS011;40431;52.198;9.902;2023-10-19T00:49:26;32.53;;;29.23;;
17524;SDS011;40431;52.198;9.902;2023-10-19T00:51:55;33.50;;;30.60;;
17524;SDS011;40431;52.198;9.902;2023-10-19T00:54:29;32.53;;;29.43;;
17524;SDS011;40431;52.198;9.902;2023-10-19T00:57:01;31.90;;;29.10;;
17524;SDS011;40431;52.198;9.902;2023-10-19T00:59:32;33.10;;;29.97;;
17524;SDS011;40431;52.198;9.902;2023-10-19T01:02:03;32.87;;;29.87;;
17524;SDS011;40431;52.198;9.902;2023-10-19T01:04:43;35.00;;;31.63;;
17524;SDS011;40431;52.198;9.902;2023-10-19T01:07:15;33.07;;;30.07;;
17524;SDS011;40431;52.198;9.902;2023-10-19T01:09:47;34.83;;;31.80;;
17524;SDS011;40431;52.198;9.902;2023-10-19T01:12:17;33.70;;;30.60;;
17524;SDS011;40431;52.198;9.902;2023-10-19T01:15:03;33.70;;;30.63;;
17524;SDS011;40431;52.198;9.902;2023-10-19T01:17:33;35.70;;;32.47;;
17524;SDS011;40431;52.198;9.902;2023-10-19T01:20:06;33.70;;;30.57;;
17524;SDS011;40431;52.198;9.902;2023-10-19T01:22:46;34.63;;;31.70;;
17524;SDS011;40431;52.198;9.902;2023-10-19T01:25:31;35.77;;;32.23;;
17524;SDS011;40431;52.198;9.902;2023-10-19T01:28:00;33.60;;;30.63;;
17524;SDS011;40431;52.198;9.902;2023-10-19T01:30:32;37.00;;;33.27;;
17524;SDS011;40431;52.198;9.902;2023-10-19T01:32:59;36.13;;;32.60;;
17524;SDS011;40431;52.198;9.902;2023-10-19T01:35:25;36.30;;;32.63;;
17524;SDS011;40431;52.198;9.902;2023-10-19T01:38:13;34.47;;;31.20;;
17524;SDS011;40431;52.198;9.902;2023-10-19T01:40:40;34.67;;;30.83;;
17524;SDS011;40431;52.198;9.902;2023-10-19T01:43:11;33.90;;;30.73;;
17524;SDS011;40431;52.198;9.902;2023-10-19T01:45:45;33.83;;;30.67;;
17524;SDS011;40431;52.198;9.902;2023-10-19T01:48:11;34.97;;;31.60;;
17524;SDS011;40431;52.198;9.902;2023-10-19T01:50:38;34.30;;;31.10;;
17524;SDS011;40431;52.198;9.902;2023-10-19T01:53:04;34.17;;;30.93;;
17524;SDS011;40431;52.198;9.902;2023-10-19T01:55:39;33.97;;;30.67;;
17524;SDS011;40431;52.198;9.902;2023-10-19T01:58:04;32.83;;;30.03;;
17524;SDS011;40431;52.198;9.902;2023-10-19T02:00:31;36.03;;;32.23;;
17524;SDS011;40431;52.198;9.902;2023-10-19T02:03:02;34.30;;;31.03;;
17524;SDS011;40431;52.198;9.902;2023-10-19T02:05:33;35.07;;;31.87;;
17524;SDS011;40431;52.198;9.902;2023-10-19T02:08:05;36.43;;;32.73;;
17524;SDS011;40431;52.198;9.902;2023-10-19T02:10:32;34.73;;;31.23;;
17524;SDS011;40431;52.198;9.902;2023-10-19T02:12:59;35.17;;;31.43;;
17524;SDS011;40431;52.198;9.902;2023-10-19T02:15:31;35.87;;;32.47;;
17524;SDS011;40431;52.198;9.902;2023-10-19T02:17:59;35.60;;;32.13;;
17524;SDS011;40431;52.198;9.902;2023-10-19T02:20:27;34.50;;;31.50;;
17524;SDS011;40431;52.198;9.902;2023-10-19T02:22:53;35.50;;;32.07;;
17524;SDS011;40431;52.198;9.902;2023-10-19T02:25:22;36.13;;;32.70;;
17524;SDS011;40431;52.198;9.902;2023-10-19T02:27:49;36.73;;;33.17;;
17524;SDS011;40431;52.198;9.902;2023-10-19T02:30:16;36.03;;;32.33;;
17524;SDS011;40431;52.198;9.902;2023-10-19T02:32:43;35.83;;;32.13;;
17524;SDS011;40431;52.198;9.902;2023-10-19T02:35:09;37.17;;;33.47;;
17524;SDS011;40431;52.198;9.902;2023-10-19T02:37:35;37.20;;;33.37;;
17524;SDS011;40431;52.198;9.902;2023-10-19T02:40:04;36.23;;;32.50;;
17524;SDS011;40431;52.198;9.902;2023-10-19T02:42:37;36.00;;;32.40;;
17524;SDS011;40431;52.198;9.902;2023-10-19T02:45:03;36.57;;;33.23;;
17524;SDS011;40431;52.198;9.902;2023-10-19T02:47:31;36.83;;;33.23;;
17524;SDS011;40431;52.198;9.902;2023-10-19T02:49:57;36.90;;;33.10;;
17524;SDS011;40431;52.198;9.902;2023-10-19T02:52:25;35.83;;;32.53;;
17524;SDS011;40431;52.198;9.902;2023-10-19T02:54:52;35.83;;;32.23;;
17524;SDS011;40431;52.198;9.902;2023-10-19T02:57:22;36.50;;;32.83;;
17524;SDS011;40431;52.198;9.902;2023-10-19T02:59:47;35.53;;;32.10;;
17524;SDS011;40431;52.198;9.902;2023-10-19T03:02:14;37.73;;;33.97;;
17524;SDS011;40431;52.198;9.902;2023-10-19T03:04:43;35.10;;;32.00;;
17524;SDS011;40431;52.198;9.902;2023-10-19T03:07:10;36.87;;;33.47;;
17524;SDS011;40431;52.198;9.902;2023-10-19T03:09:37;38.80;;;35.03;;
17524;SDS011;40431;52.198;9.902;2023-10-19T03:12:05;36.60;;;32.90;;
17524;SDS011;40431;52.198;9.902;2023-10-19T03:14:35;36.90;;;33.13;;
17524;SDS011;40431;52.198;9.902;2023-10-19T03:17:02;36.77;;;33.17;;
17524;SDS011;40431;52.198;9.902;2023-10-19T03:19:29;36.77;;;33.37;;
17524;SDS011;40431;52.198;9.902;2023-10-19T03:21:57;36.80;;;33.23;;
17524;SDS011;40431;52.198;9.902;2023-10-19T03:24:25;35.73;;;32.17;;
17524;SDS011;40431;52.198;9.902;2023-10-19T03:27:01;36.67;;;33.10;;
17524;SDS011;40431;52.198;9.902;2023-10-19T03:29:27;36.83;;;33.30;;
17524;SDS011;40431;52.198;9.902;2023-10-19T03:31:56;36.10;;;32.77;;
17524;SDS011;40431;52.198;9.902;2023-10-19T03:34:24;35.37;;;32.07;;
17524;SDS011;40431;52.198;9.902;2023-10-19T03:36:50;35.43;;;32.20;;
17524;SDS011;40431;52.198;9.902;2023-10-19T03:39:18;34.30;;;31.30;;
17524;SDS011;40431;52.198;9.902;2023-10-19T03:41:46;35.60;;;32.27;;
17524;SDS011;40431;52.198;9.902;2023-10-19T03:44:16;36.87;;;33.17;;
17524;SDS011;40431;52.198;9.902;2023-10-19T03:46:46;35.80;;;32.40;;
17524;SDS011;40431;52.198;9.902;2023-10-19T03:49:22;35.60;;;32.20;;
17524;SDS011;40431;52.198;9.902;2023-10-19T03:51:52;36.73;;;33.13;;
17524;SDS011;40431;52.198;9.902;2023-10-19T03:54:27;36.73;;;33.13;;
17524;SDS011;40431;52.198;9.902;2023-10-19T03:56:53;36.23;;;32.57;;
17524;SDS011;40431;52.198;9.902;2023-10-19T03:59:22;35.67;;;32.33;;
17524;SDS011;40431;52.198;9.902;2023-10-19T04:01:49;35.63;;;32.30;;
17524;SDS011;40431;52.198;9.902;2023-10-19T04:04:15;36.67;;;33.07;;
17524;SDS011;40431;52.198;9.902;2023-10-19T04:06:42;35.07;;;31.77;;
17524;SDS011;40431;52.198;9.902;2023-10-19T04:09:12;35.87;;;32.03;;
17524;SDS011;40431;52.198;9.902;2023-10-19T04:11:42;35.50;;;32.23;;
17524;SDS011;40431;52.198;9.902;2023-10-19T04:14:14;36.83;;;33.40;;
17524;SDS011;40431;52.198;9.902;2023-10-19T04:16:41;36.73;;;33.23;;
17524;SDS011;40431;52.198;9.902;2023-10-19T04:19:08;38.13;;;34.27;;
17524;SDS011;40431;52.198;9.902;2023-10-19T04:21:35;34.93;;;31.53;;
17524;SDS011;40431;52.198;9.902;2023-10-19T04:24:04;36.20;;;32.70;;
17524;SDS011;40431;52.198;9.902;2023-10-19T04:26:32;35.83;;;32.27;;
17524;SDS011;40431;52.198;9.902;2023-10-19T04:29:03;33.37;;;30.23;;
17524;SDS011;40431;52.198;9.902;2023-10-19T04:31:35;32.43;;;29.63;;
17524;SDS011;40431;52.198;9.902;2023-10-19T04:34:02;31.43;;;28.50;;
17524;SDS011;40431;52.198;9.902;2023-10-19T04:36:32;32.50;;;29.43;;
17524;SDS011;40431;52.198;9.902;2023-10-19T04:38:59;33.37;;;30.27;;
17524;SDS011;40431;52.198;9.902;2023-10-19T04:41:25;32.63;;;29.73;;
17524;SDS011;40431;52.198;9.902;2023-10-19T04:43:53;30.97;;;28.17;;
17524;SDS011;40431;52.198;9.902;2023-10-19T04:46:23;30.80;;;28.20;;
17524;SDS011;40431;52.198;9.902;2023-10-19T04:48:50;30.70;;;28.03;;
17524;SDS011;40431;52.198;9.902;2023-10-19T04:51:16;30.17;;;27.57;;
17524;SDS011;40431;52.198;9.902;2023-10-19T04:53:43;29.47;;;27.13;;
17524;SDS011;40431;52.198;9.902;2023-10-19T04:56:09;29.40;;;27.00;;
17524;SDS011;40431;52.198;9.902;2023-10-19T04:58:37;28.53;;;26.33;;
17524;SDS011;40431;52.198;9.902;2023-10-19T05:01:04;29.27;;;26.87;;
17524;SDS011;40431;52.198;9.902;2023-10-19T05:03:32;30.60;;;28.07;;
17524;SDS011;40431;52.198;9.902;2023-10-19T05:05:59;27.87;;;25.67;;
17524;SDS011;40431;52.198;9.902;2023-10-19T05:08:26;30.57;;;27.93;;
17524;SDS011;40431;52.198;9.902;2023-10-19T05:10:53;28.67;;;26.23;;
17524;SDS011;40431;52.198;9.902;2023-10-19T05:13:20;28.27;;;26.17;;
17524;SDS011;40431;52.198;9.902;2023-10-19T05:15:47;26.23;;;24.33;;
17524;SDS011;40431;52.198;9.902;2023-10-19T05:18:13;28.07;;;25.87;;
17524;SDS011;40431;52.198;9.902;2023-10-19T05:20:41;28.77;;;26.37;;
17524;SDS011;40431;52.198;9.902;2023-10-19T05:23:08;28.03;;;25.80;;
17524;SDS011;40431;52.198;9.902;2023-10-19T05:25:35;28.30;;;26.00;;
17524;SDS011;40431;52.198;9.902;2023-10-19T05:28:03;26.37;;;24.30;;
17524;SDS011;40431;52.198;9.902;2023-10-19T05:30:30;28.63;;;26.33;;
17524;SDS011;40431;52.198;9.902;2023-10-19T05:32:57;28.93;;;26.63;;
17524;SDS011;40431;52.198;9.902;2023-10-19T05:35:23;30.03;;;27.53;;
17524;SDS011;40431;52.198;9.902;2023-10-19T05:37:52;29.50;;;27.00;;
17524;SDS011;40431;52.198;9.902;2023-10-19T05:40:20;29.73;;;27.23;;
17524;SDS011;40431;52.198;9.902;2023-10-19T05:42:48;29.57;;;27.00;;
17524;SDS011;40431;52.198;9.902;2023-10-19T05:45:15;30.63;;;28.00;;
17524;SDS011;40431;52.198;9.902;2023-10-19T05:47:41;28.43;;;26.23;;
17524;SDS011;40431;52.198;9.902;2023-10-19T05:50:08;28.13;;;25.83;;
17524;SDS011;40431;52.198;9.902;2023-10-19T05:52:39;26.73;;;24.60;;
17524;SDS011;40431;52.198;9.902;2023-10-19T05:55:07;26.43;;;24.33;;
17524;SDS011;40431;52.198;9.902;2023-10-19T05:57:34;27.10;;;25.03;;
17524;SDS011;40431;52.198;9.902;2023-10-19T06:00:05;27.13;;;25.00;;
17524;SDS011;40431;52.198;9.902;2023-10-19T06:02:33;25.30;;;23.50;;
17524;SDS011;40431;52.198;9.902;2023-10-19T06:04:59;26.43;;;24.43;;
17524;SDS011;40431;52.198;9.902;2023-10-19T06:07:26;26.43;;;24.27;;
17524;SDS011;40431;52.198;9.902;2023-10-19T06:09:53;24.30;;;22.47;;
17524;SDS011;40431;52.198;9.902;2023-10-19T06:12:21;24.20;;;22.50;;
17524;SDS011;40431;52.198;9.902;2023-10-19T06:14:47;24.13;;;21.93;;
17524;SDS011;40431;52.198;9.902;2023-10-19T06:17:13;22.97;;;21.37;;
17524;SDS011;40431;52.198;9.902;2023-10-19T06:19:44;23.03;;;21.43;;
17524;SDS011;40431;52.198;9.902;2023-10-19T06:22:11;22.23;;;20.67;;
17524;SDS011;40431;52.198;9.902;2023-10-19T06:24:40;21.37;;;19.77;;
17524;SDS011;40431;52.198;9.902;2023-10-19T06:27:06;21.30;;;19.80;;
17524;SDS011;40431;52.198;9.902;2023-10-19T06:29:34;20.37;;;18.97;;
17524;SDS011;40431;52.198;9.902;2023-10-19T06:32:01;19.87;;;18.53;;
17524;SDS011;40431;52.198;9.902;2023-10-19T06:34:27;20.37;;;18.97;;
17524;SDS011;40431;52.198;9.902;2023-10-19T06:36:53;20.07;;;18.67;;
17524;SDS011;40431;52.198;9.902;2023-10-19T06:39:20;20.17;;;18.67;;
17524;SDS011;40431;52.198;9.902;2023-10-19T06:41:47;19.00;;;17.70;;
17524;SDS011;40431;52.198;9.902;2023-10-19T06:44:14;18.77;;;17.37;;
17524;SDS011;40431;52.198;9.902;2023-10-19T06:46:43;19.33;;;17.93;;
17524;SDS011;40431;52.198;9.902;2023-10-19T06:49:09;19.00;;;17.70;;
17524;SDS011;40431;52.198;9.902;2023-10-19T06:51:36;18.70;;;17.40;;
17524;SDS011;40431;52.198;9.902;2023-10-19T06:54:02;17.33;;;16.13;;
17524;SDS011;40431;52.198;9.902;2023-10-19T06:56:29;17.20;;;16.00;;
17524;SDS011;40431;52.198;9.902;2023-10-19T06:58:57;17.27;;;16.10;;
17524;SDS011;40431;52.198;9.902;2023-10-19T07:01:24;16.40;;;15.40;;
17524;SDS011;40431;52.198;9.902;2023-10-19T07:03:55;15.80;;;14.80;;
17524;SDS011;40431;52.198;9.902;2023-10-19T07:06:23;17.27;;;16.17;;
17524;SDS011;40431;52.198;9.902;2023-10-19T07:08:50;16.93;;;15.77;;
17524;SDS011;40431;52.198;9.902;2023-10-19T07:11:17;15.97;;;14.97;;
17524;SDS011;40431;52.198;9.902;2023-10-19T07:13:43;17.17;;;15.87;;
17524;SDS011;40431;52.198;9.902;2023-10-19T07:16:10;16.70;;;15.60;;
17524;SDS011;40431;52.198;9.902;2023-10-19T07:18:37;16.30;;;15.20;;
17524;SDS011;40431;52.198;9.902;2023-10-19T07:21:05;15.67;;;14.67;;
17524;SDS011;40431;52.198;9.902;2023-10-19T07:23:34;16.30;;;15.20;;
17524;SDS011;40431;52.198;9.902;2023-10-19T07:26:02;14.40;;;13.40;;
17524;SDS011;40431;52.198;9.902;2023-10-19T07:28:30;15.50;;;14.40;;
17524;SDS011;40431;52.198;9.902;2023-10-19T07:30:57;15.90;;;14.90;;
17524;SDS011;40431;52.198;9.902;2023-10-19T07:33:24;15.33;;;14.33;;
17524;SDS011;40431;52.198;9.902;2023-10-19T07:35:51;16.23;;;15.07;;
17524;SDS011;40431;52.198;9.902;2023-10-19T07:38:21;15.57;;;14.60;;
17524;SDS011;40431;52.198;9.902;2023-10-19T07:40:48;14.87;;;13.87;;
17524;SDS011;40431;52.198;9.902;2023-10-19T07:43:17;15.13;;;14.13;;
17524;SDS011;40431;52.198;9.902;2023-10-19T07:45:45;14.97;;;13.97;;
17524;SDS011;40431;52.198;9.902;2023-10-19T07:48:12;14.60;;;13.67;;
17524;SDS011;40431;52.198;9.902;2023-10-19T07:50:39;15.67;;;14.67;;
17524;SDS011;40431;52.198;9.902;2023-10-19T07:53:07;15.77;;;14.67;;
17524;SDS011;40431;52.198;9.902;2023-10-19T07:55:35;14.17;;;13.27;;
17524;SDS011;40431;52.198;9.902;2023-10-19T07:58:03;14.47;;;13.57;;
17524;SDS011;40431;52.198;9.902;2023-10-19T08:00:31;14.63;;;13.73;;
17524;SDS011;40431;52.198;9.902;2023-10-19T08:02:59;15.07;;;14.07;;
17524;SDS011;40431;52.198;9.902;2023-10-19T08:05:25;14.03;;;13.13;;
17524;SDS011;40431;52.198;9.902;2023-10-19T08:07:52;14.37;;;13.47;;
17524;SDS011;40431;52.198;9.902;2023-10-19T08:10:19;13.73;;;12.93;;
17524;SDS011;40431;52.198;9.902;2023-10-19T08:12:48;14.37;;;13.37;;
17524;SDS011;40431;52.198;9.902;2023-10-19T08:15:15;13.90;;;13.10;;
17524;SDS011;40431;52.198;9.902;2023-10-19T08:17:43;14.83;;;13.83;;
17524;SDS011;40431;52.198;9.902;2023-10-19T08:20:12;15.07;;;14.17;;
17524;SDS011;40431;52.198;9.902;2023-10-19T08:22:48;14.30;;;13.30;;
17524;SDS011;40431;52.198;9.902;2023-10-19T08:25:15;16.10;;;15.00;;
17524;SDS011;40431;52.198;9.902;2023-10-19T08:27:41;14.97;;;13.97;;
17524;SDS011;40431;52.198;9.902;2023-10-19T08:30:11;15.13;;;14.23;;
17524;SDS011;40431;52.198;9.902;2023-10-19T08:32:39;15.40;;;14.40;;
17524;SDS011;40431;52.198;9.902;2023-10-19T08:35:06;15.13;;;14.13;;
17524;SDS011;40431;52.198;9.902;2023-10-19T08:37:33;14.97;;;13.97;;
17524;SDS011;40431;52.198;9.902;2023-10-19T08:40:00;14.93;;;13.97;;
17524;SDS011;40431;52.198;9.902;2023-10-19T08:42:28;14.43;;;13.53;;
17524;SDS011;40431;52.198;9.902;2023-10-19T08:44:55;15.17;;;14.27;;
17524;SDS011;40431;52.198;9.902;2023-10-19T08:47:25;15.27;;;14.37;;
17524;SDS011;40431;52.198;9.902;2023-10-19T08:49:52;15.77;;;14.77;;
17524;SDS011;40431;52.198;9.902;2023-10-19T08:52:20;15.53;;;14.53;;
17524;SDS011;40431;52.198;9.902;2023-10-19T08:54:48;14.77;;;13.80;;
17524;SDS011;40431;52.198;9.902;2023-10-19T08:57:15;15.07;;;14.10;;
17524;SDS011;40431;52.198;9.902;2023-10-19T08:59:41;15.90;;;14.90;;
17524;SDS011;40431;52.198;9.902;2023-10-19T09:02:08;15.33;;;14.33;;
17524;SDS011;40431;52.198;9.902;2023-10-19T09:04:41;15.63;;;14.63;;
17524;SDS011;40431;52.198;9.902;2023-10-19T09:07:08;16.00;;;14.90;;
17524;SDS011;40431;52.198;9.902;2023-10-19T09:09:36;15.17;;;14.17;;
17524;SDS011;40431;52.198;9.902;2023-10-19T09:12:05;15.47;;;14.47;;
17524;SDS011;40431;52.198;9.902;2023-10-19T09:14:32;15.33;;;14.33;;
17524;SDS011;40431;52.198;9.902;2023-10-19T09:17:01;15.60;;;14.70;;
17524;SDS011;40431;52.198;9.902;2023-10-19T09:19:38;15.03;;;14.03;;
17524;SDS011;40431;52.198;9.902;2023-10-19T09:22:08;15.73;;;14.73;;
17524;SDS011;40431;52.198;9.902;2023-10-19T09:24:43;16.03;;;15.03;;
17524;SDS011;40431;52.198;9.902;2023-10-19T09:27:11;16.60;;;15.57;;
17524;SDS011;40431;52.198;9.902;2023-10-19T09:29:38;15.47;;;14.47;;
17524;SDS011;40431;52.198;9.902;2023-10-19T09:32:05;16.07;;;14.97;;
17524;SDS011;40431;52.198;9.902;2023-10-19T09:34:33;16.93;;;15.83;;
17524;SDS011;40431;52.198;9.902;2023-10-19T09:37:00;15.57;;;14.57;;
17524;SDS011;40431;52.198;9.902;2023-10-19T09:39:29;17.53;;;16.33;;
17524;SDS011;40431;52.198;9.902;2023-10-19T09:41:59;15.90;;;14.90;;
17524;SDS011;40431;52.198;9.902;2023-10-19T09:44:30;16.87;;;15.77;;
17524;SDS011;40431;52.198;9.902;2023-10-19T09:47:01;17.00;;;15.90;;
17524;SDS011;40431;52.198;9.902;2023-10-19T09:49:34;16.27;;;15.17;;
17524;SDS011;40431;52.198;9.902;2023-10-19T09:52:01;16.60;;;15.60;;
17524;SDS011;40431;52.198;9.902;2023-10-19T09:54:32;15.40;;;14.50;;
17524;SDS011;40431;52.198;9.902;2023-10-19T09:57:09;15.93;;;14.93;;
17524;SDS011;40431;52.198;9.902;2023-10-19T09:59:41;17.13;;;16.03;;
17524;SDS011;40431;52.198;9.902;2023-10-19T10:02:12;16.83;;;15.77;;
17524;SDS011;40431;52.198;9.902;2023-10-19T10:04:40;17.13;;;16.03;;
17524;SDS011;40431;52.198;9.902;2023-10-19T10:07:07;15.70;;;14.50;;
17524;SDS011;40431;52.198;9.902;2023-10-19T10:09:37;17.87;;;16.67;;
17524;SDS011;40431;52.198;9.902;2023-10-19T10:12:18;16.17;;;15.07;;
17524;SDS011;40431;52.198;9.902;2023-10-19T10:14:53;17.50;;;16.30;;
17524;SDS011;40431;52.198;9.902;2023-10-19T10:17:23;17.67;;;16.47;;
17524;SDS011;40431;52.198;9.902;2023-10-19T10:19:53;17.07;;;16.07;;
17524;SDS011;40431;52.198;9.902;2023-10-19T10:22:21;16.97;;;15.87;;
17524;SDS011;40431;52.198;9.902;2023-10-19T10:24:54;15.23;;;14.23;;
17524;SDS011;40431;52.198;9.902;2023-10-19T10:27:21;16.40;;;15.40;;
17524;SDS011;40431;52.198;9.902;2023-10-19T10:29:55;15.57;;;14.67;;
17524;SDS011;40431;52.198;9.902;2023-10-19T10:38:19;17.27;;;16.10;;
17524;SDS011;40431;52.198;9.902;2023-10-19T10:40:47;18.27;;;16.87;;
17524;SDS011;40431;52.198;9.902;2023-10-19T10:43:14;15.50;;;14.60;;
17524;SDS011;40431;52.198;9.902;2023-10-19T10:45:41;16.00;;;15.00;;
17524;SDS011;40431;52.198;9.902;2023-10-19T10:48:12;17.40;;;16.03;;
17524;SDS011;40431;52.198;9.902;2023-10-19T10:50:39;15.97;;;14.93;;
17524;SDS011;40431;52.198;9.902;2023-10-19T10:53:06;20.20;;;18.90;;
17524;SDS011;40431;52.198;9.902;2023-10-19T10:55:33;19.07;;;17.80;;
17524;SDS011;40431;52.198;9.902;2023-10-19T10:58:00;22.10;;;20.50;;
17524;SDS011;40431;52.198;9.902;2023-10-19T11:00:27;16.47;;;15.37;;
17524;SDS011;40431;52.198;9.902;2023-10-19T11:03:00;24.17;;;22.57;;
17524;SDS011;40431;52.198;9.902;2023-10-19T11:05:29;16.80;;;15.70;;
17524;SDS011;40431;52.198;9.902;2023-10-19T11:08:07;23.70;;;22.07;;
17524;SDS011;40431;52.198;9.902;2023-10-19T11:10:38;18.37;;;17.27;;
17524;SDS011;40431;52.198;9.902;2023-10-19T11:13:09;19.73;;;18.47;;
17524;SDS011;40431;52.198;9.902;2023-10-19T11:15:37;18.83;;;17.63;;
17524;SDS011;40431;52.198;9.902;2023-10-19T11:18:04;17.73;;;16.53;;
17524;SDS011;40431;52.198;9.902;2023-10-19T11:20:32;17.70;;;16.50;;
17524;SDS011;40431;52.198;9.902;2023-10-19T11:22:59;18.00;;;16.67;;
17524;SDS011;40431;52.198;9.902;2023-10-19T11:25:26;19.93;;;18.50;;
17524;SDS011;40431;52.198;9.902;2023-10-19T11:27:54;17.93;;;16.73;;
17524;SDS011;40431;52.198;9.902;2023-10-19T11:30:25;18.30;;;17.13;;
17524;SDS011;40431;52.198;9.902;2023-10-19T11:32:53;18.30;;;17.17;;
17524;SDS011;40431;52.198;9.902;2023-10-19T11:35:22;18.63;;;17.17;;
17524;SDS011;40431;52.198;9.902;2023-10-19T11:37:50;17.80;;;16.30;;
17524;SDS011;40431;52.198;9.902;2023-10-19T11:40:17;18.43;;;16.77;;
17524;SDS011;40431;52.198;9.902;2023-10-19T11:42:45;19.83;;;18.23;;
17524;SDS011;40431;52.198;9.902;2023-10-19T11:45:12;17.50;;;16.40;;
17524;SDS011;40431;52.198;9.902;2023-10-19T11:47:39;17.43;;;16.33;;
17524;SDS011;40431;52.198;9.902;2023-10-19T11:50:06;19.20;;;17.87;;
17524;SDS011;40431;52.198;9.902;2023-10-19T11:52:33;18.73;;;17.20;;
17524;SDS011;40431;52.198;9.902;2023-10-19T11:54:59;18.10;;;16.90;;
17524;SDS011;40431;52.198;9.902;2023-10-19T11:57:26;18.23;;;17.03;;
17524;SDS011;40431;52.198;9.902;2023-10-19T11:59:52;18.10;;;16.90;;
17524;SDS011;40431;52.198;9.902;2023-10-19T12:02:18;18.33;;;17.03;;
17524;SDS011;40431;52.198;9.902;2023-10-19T12:04:47;19.77;;;17.90;;
17524;SDS011;40431;52.198;9.902;2023-10-19T12:07:13;19.00;;;17.50;;
17524;SDS011;40431;52.198;9.902;2023-10-19T12:09:39;19.40;;;17.97;;
17524;SDS011;40431;52.198;9.902;2023-10-19T12:12:06;19.00;;;17.50;;
17524;SDS011;40431;52.198;9.902;2023-10-19T12:14:34;19.23;;;17.60;;
17524;SDS011;40431;52.198;9.902;2023-10-19T12:17:00;18.00;;;16.80;;
17524;SDS011;40431;52.198;9.902;2023-10-19T12:19:27;18.17;;;16.87;;
17524;SDS011;40431;52.198;9.902;2023-10-19T12:21:57;18.37;;;17.10;;
17524;SDS011;40431;52.198;9.902;2023-10-19T12:24:23;17.77;;;16.47;;
17524;SDS011;40431;52.198;9.902;2023-10-19T12:26:53;18.97;;;17.57;;
17524;SDS011;40431;52.198;9.902;2023-10-19T12:29:19;18.30;;;17.00;;
17524;SDS011;40431;52.198;9.902;2023-10-19T12:31:46;18.43;;;17.23;;
17524;SDS011;40431;52.198;9.902;2023-10-19T12:34:13;19.67;;;18.23;;
17524;SDS011;40431;52.198;9.902;2023-10-19T12:36:40;19.03;;;17.73;;
17524;SDS011;40431;52.198;9.902;2023-10-19T12:39:11;18.43;;;16.83;;
17524;SDS011;40431;52.198;9.902;2023-10-19T12:41:58;17.80;;;16.57;;
17524;SDS011;40431;52.198;9.902;2023-10-19T12:44:24;17.60;;;16.33;;
17524;SDS011;40431;52.198;9.902;2023-10-19T12:46:53;17.43;;;16.23;;
17524;SDS011;40431;52.198;9.902;2023-10-19T12:49:20;17.97;;;16.67;;
17524;SDS011;40431;52.198;9.902;2023-10-19T12:51:51;17.80;;;16.60;;
17524;SDS011;40431;52.198;9.902;2023-10-19T12:54:19;19.13;;;17.73;;
17524;SDS011;40431;52.198;9.902;2023-10-19T12:56:46;18.80;;;17.40;;
17524;SDS011;40431;52.198;9.902;2023-10-19T12:59:14;18.77;;;17.47;;
17524;SDS011;40431;52.198;9.902;2023-10-19T13:01:43;19.17;;;17.63;;
17524;SDS011;40431;52.198;9.902;2023-10-19T13:04:13;19.97;;;18.20;;
17524;SDS011;40431;52.198;9.902;2023-10-19T13:06:41;17.80;;;16.50;;
17524;SDS011;40431;52.198;9.902;2023-10-19T13:09:08;19.53;;;17.97;;
17524;SDS011;40431;52.198;9.902;2023-10-19T13:11:36;19.03;;;17.73;;
17524;SDS011;40431;52.198;9.902;2023-10-19T13:14:03;19.97;;;18.47;;
17524;SDS011;40431;52.198;9.902;2023-10-19T13:16:31;19.13;;;17.77;;
17524;SDS011;40431;52.198;9.902;2023-10-19T13:18:57;21.13;;;19.23;;
17524;SDS011;40431;52.198;9.902;2023-10-19T13:21:33;19.60;;;18.10;;
17524;SDS011;40431;52.198;9.902;2023-10-19T13:24:00;20.47;;;18.87;;
17524;SDS011;40431;52.198;9.902;2023-10-19T13:26:27;18.90;;;17.50;;
17524;SDS011;40431;52.198;9.902;2023-10-19T13:28:54;21.40;;;19.80;;
17524;SDS011;40431;52.198;9.902;2023-10-19T13:31:21;20.40;;;19.00;;
17524;SDS011;40431;52.198;9.902;2023-10-19T13:33:51;20.37;;;18.67;;
17524;SDS011;40431;52.198;9.902;2023-10-19T13:36:19;22.10;;;20.10;;
17524;SDS011;40431;52.198;9.902;2023-10-19T13:38:46;21.77;;;20.17;;
17524;SDS011;40431;52.198;9.902;2023-10-19T13:41:12;22.27;;;20.47;;
17524;SDS011;40431;52.198;9.902;2023-10-19T13:43:41;23.67;;;21.60;;
17524;SDS011;40431;52.198;9.902;2023-10-19T13:46:10;24.37;;;22.17;;
17524;SDS011;40431;52.198;9.902;2023-10-19T13:48:37;28.03;;;25.63;;
17524;SDS011;40431;52.198;9.902;2023-10-19T13:51:04;29.50;;;26.70;;
17524;SDS011;40431;52.198;9.902;2023-10-19T13:53:37;30.07;;;27.07;;
17524;SDS011;40431;52.198;9.902;2023-10-19T13:56:06;30.23;;;27.40;;
17524;SDS011;40431;52.198;9.902;2023-10-19T13:58:34;29.70;;;26.87;;
17524;SDS011;40431;52.198;9.902;2023-10-19T14:01:00;31.37;;;28.17;;
17524;SDS011;40431;52.198;9.902;2023-10-19T14:03:29;31.73;;;28.43;;
17524;SDS011;40431;52.198;9.902;2023-10-19T14:05:56;32.03;;;28.60;;
17524;SDS011;40431;52.198;9.902;2023-10-19T14:08:22;32.40;;;29.30;;
17524;SDS011;40431;52.198;9.902;2023-10-19T14:10:48;32.57;;;28.73;;
17524;SDS011;40431;52.198;9.902;2023-10-19T14:13:15;33.37;;;29.97;;
17524;SDS011;40431;52.198;9.902;2023-10-19T14:15:41;34.83;;;31.13;;
17524;SDS011;40431;52.198;9.902;2023-10-19T14:18:09;39.20;;;30.70;;
17524;SDS011;40431;52.198;9.902;2023-10-19T14:20:37;35.40;;;31.03;;
17524;SDS011;40431;52.198;9.902;2023-10-19T14:23:05;36.90;;;31.53;;
17524;SDS011;40431;52.198;9.902;2023-10-19T14:25:35;46.83;;;34.97;;
17524;SDS011;40431;52.198;9.902;2023-10-19T14:28:03;40.33;;;31.93;;
17524;SDS011;40431;52.198;9.902;2023-10-19T14:30:31;37.03;;;31.70;;
17524;SDS011;40431;52.198;9.902;2023-10-19T14:32:58;41.97;;;30.77;;
17524;SDS011;40431;52.198;9.902;2023-10-19T14:35:25;35.83;;;32.00;;